createdAt,value
2019-05-07T00:05:26.121Z,5.40
2019-05-07T00:11:15.760Z,5.30
2019-05-07T00:13:57.138Z,5.30
2019-05-07T00:16:38.348Z,5.20
2019-05-07T00:19:19.940Z,5.30
2019-05-07T00:22:02.351Z,5.30
2019-05-07T00:34:14.353Z,5.10
2019-05-07T00:40:09.643Z,5.00
2019-05-07T00:46:02.307Z,5.10
2019-05-07T00:48:43.253Z,5.10
2019-05-07T00:51:29.795Z,5.10
2019-05-07T00:54:12.254Z,5.10
2019-05-07T00:56:52.978Z,5.00
2019-05-07T00:59:52.824Z,5.00
2019-05-07T01:02:33.659Z,4.90
2019-05-07T01:05:15.231Z,4.80
2019-05-07T01:07:56.984Z,4.80
2019-05-07T01:10:38.246Z,4.70
2019-05-07T01:16:25.124Z,4.50
2019-05-07T01:19:06.520Z,4.50
2019-05-07T01:21:47.693Z,4.30
2019-05-07T01:27:34.142Z,4.20
2019-05-07T01:36:31.973Z,3.90
2019-05-07T01:39:32.760Z,3.80
2019-05-07T01:42:13.936Z,3.80
2019-05-07T01:44:55.316Z,3.80
2019-05-07T01:47:36.038Z,3.70
2019-05-07T01:50:15.615Z,3.60
2019-05-07T01:53:04.102Z,3.60
2019-05-07T01:58:42.461Z,3.60
2019-05-07T02:01:35.488Z,3.70
2019-05-07T02:07:40.387Z,3.70
2019-05-07T02:10:48.045Z,3.60
2019-05-07T02:13:36.524Z,3.60
2019-05-07T02:16:25.086Z,3.50
2019-05-07T02:19:13.501Z,3.50
2019-05-07T02:21:54.929Z,3.50
2019-05-07T02:24:36.295Z,3.70
2019-05-07T02:27:17.900Z,3.70
2019-05-07T02:29:58.913Z,3.70
2019-05-07T02:32:58.682Z,3.60
2019-05-07T02:35:38.371Z,3.60
2019-05-07T02:38:45.764Z,3.70
2019-05-07T02:45:36.901Z,3.50
2019-05-07T02:54:34.602Z,3.20
2019-05-07T03:00:14.667Z,3.00
2019-05-07T03:03:04.094Z,2.80
2019-05-07T03:09:22.857Z,2.70
2019-05-07T03:12:13.366Z,2.60
2019-05-07T03:21:55.192Z,2.70
2019-05-07T03:27:36.241Z,3.00
2019-05-07T03:30:36.552Z,3.10
2019-05-07T03:36:35.416Z,3.40
2019-05-07T03:39:16.357Z,3.60
2019-05-07T03:41:57.097Z,3.80
2019-05-07T03:47:45.367Z,3.90
2019-05-07T03:50:27.121Z,3.90
2019-05-07T03:56:27.597Z,3.90
2019-05-07T04:05:36.150Z,4.00
2019-05-07T04:11:34.291Z,4.00
2019-05-07T04:14:15.036Z,4.00
2019-05-07T04:17:13.294Z,4.10
2019-05-07T04:19:38.990Z,4.20
2019-05-07T04:25:43.635Z,4.20
2019-05-07T04:28:54.012Z,4.20
2019-05-07T04:34:58.819Z,4.30
2019-05-07T04:37:47.389Z,4.50
2019-05-07T04:40:35.893Z,5.00
2019-05-07T04:43:24.346Z,5.10
2019-05-07T04:49:43.738Z,5.60
2019-05-07T04:55:33.469Z,6.40
2019-05-07T04:58:39.269Z,6.80
2019-05-07T05:04:21.174Z,7.10
2019-05-07T05:06:54.542Z,7.70
2019-05-07T05:09:43.100Z,7.60
2019-05-07T05:12:32.471Z,7.60
2019-05-07T05:15:22.059Z,7.30
2019-05-07T05:18:10.091Z,6.80
2019-05-07T05:21:19.576Z,7.20
2019-05-07T05:27:39.170Z,7.30
2019-05-07T05:30:38.978Z,7.90
2019-05-07T05:33:39.066Z,8.20
2019-05-07T05:36:22.029Z,8.40
2019-05-07T05:48:33.513Z,9.20
2019-05-07T05:51:40.163Z,9.80
2019-05-07T06:07:07.913Z,9.30
2019-05-07T06:15:52.073Z,10.40
2019-05-07T06:21:47.982Z,10.40
2019-05-07T06:27:27.881Z,10.20
2019-05-07T06:30:07.594Z,10.10
2019-05-07T06:32:56.400Z,10.10
2019-05-07T06:35:44.870Z,10.00
2019-05-07T06:41:52.549Z,9.90
2019-05-07T06:44:42.731Z,9.80
2019-05-07T06:47:31.945Z,10.00
2019-05-07T06:50:22.201Z,9.70
2019-05-07T06:56:48.737Z,10.10
2019-05-07T07:02:57.324Z,10.20
2019-05-07T07:06:04.692Z,10.40
2019-05-07T07:15:02.555Z,10.60
2019-05-07T07:17:52.296Z,10.70
2019-05-07T07:20:40.321Z,10.70
2019-05-07T07:23:22.603Z,11.00
2019-05-07T07:29:24.758Z,10.80
2019-05-07T07:35:25.080Z,11.50
2019-05-07T07:38:26.203Z,12.00
2019-05-07T07:47:34.599Z,12.00
2019-05-07T07:50:16.384Z,12.40
2019-05-07T08:05:32.631Z,11.40
2019-05-07T08:08:14.137Z,11.90
2019-05-07T08:10:55.072Z,11.70
2019-05-07T08:16:55.649Z,11.70
2019-05-07T08:19:36.596Z,11.50
2019-05-07T08:22:18.317Z,11.70
2019-05-07T08:25:01.752Z,12.30
2019-05-07T08:27:42.144Z,12.30
2019-05-07T08:30:24.686Z,12.20
2019-05-07T08:33:10.403Z,12.00
2019-05-07T08:36:16.327Z,11.70
2019-05-07T08:42:05.126Z,11.60
2019-05-07T08:45:12.557Z,11.70
2019-05-07T08:54:24.824Z,12.20
2019-05-07T08:57:13.309Z,12.70
2019-05-07T09:06:12.899Z,13.40
2019-05-07T09:12:26.590Z,13.40
2019-05-07T09:15:15.059Z,13.80
2019-05-07T09:18:03.555Z,14.20
2019-05-07T09:21:12.310Z,14.10
2019-05-07T09:23:52.912Z,14.10
2019-05-07T09:30:06.938Z,13.50
2019-05-07T09:35:46.919Z,13.70
2019-05-07T09:38:56.943Z,13.70
2019-05-07T09:41:32.566Z,14.20
2019-05-07T09:44:12.698Z,14.20
2019-05-07T09:47:13.072Z,14.30
2019-05-07T09:50:03.826Z,14.20
2019-05-07T09:52:36.689Z,13.90
2019-05-07T10:01:42.450Z,14.30
2019-05-07T10:04:23.985Z,14.20
2019-05-07T10:07:04.723Z,13.70
2019-05-07T10:16:07.825Z,13.70
2019-05-07T10:19:08.126Z,13.60
2019-05-07T10:22:07.657Z,14.00
2019-05-07T10:24:49.048Z,14.00
2019-05-07T10:27:29.848Z,14.70
2019-05-07T10:33:31.981Z,15.10
2019-05-07T10:39:32.902Z,14.90
2019-05-07T10:42:13.964Z,14.90
2019-05-07T10:51:08.192Z,15.10
2019-05-07T10:53:48.845Z,15.70
2019-05-07T11:02:51.828Z,15.40
2019-05-07T11:08:51.778Z,15.00
2019-05-07T11:11:32.806Z,15.30
2019-05-07T11:23:28.268Z,15.80
2019-05-07T11:29:26.221Z,15.70
2019-05-07T11:32:07.257Z,15.90
2019-05-07T11:37:56.106Z,15.80
2019-05-07T11:44:01.825Z,16.70
2019-05-07T11:47:03.120Z,15.60
2019-05-07T11:56:16.262Z,15.70
2019-05-07T12:04:49.933Z,16.00
2019-05-07T12:10:27.526Z,15.80
2019-05-07T12:13:33.756Z,16.50
2019-05-07T12:16:22.391Z,16.60
2019-05-07T12:19:12.683Z,16.00
2019-05-07T12:21:42.479Z,16.30
2019-05-07T12:24:32.849Z,16.80
2019-05-07T12:27:02.733Z,17.20
2019-05-07T12:29:52.833Z,17.20
2019-05-07T12:35:31.960Z,17.10
2019-05-07T12:41:46.359Z,17.50
2019-05-07T12:44:33.881Z,16.80
2019-05-07T12:53:09.847Z,17.30
2019-05-07T12:59:29.430Z,16.90
2019-05-07T13:02:41.083Z,16.50
2019-05-07T13:05:26.671Z,16.00
2019-05-07T13:08:15.156Z,16.70
2019-05-07T13:11:03.793Z,17.00
2019-05-07T13:13:52.736Z,16.70
2019-05-07T13:20:12.157Z,16.70
2019-05-07T13:26:02.657Z,16.20
2019-05-07T13:28:44.335Z,16.30
2019-05-07T13:41:15.627Z,17.50
2019-05-07T13:44:15.110Z,17.50
2019-05-07T13:47:14.667Z,17.50
2019-05-07T13:49:56.030Z,17.50
2019-05-07T13:52:36.678Z,17.50
2019-05-07T13:55:18.186Z,17.60
2019-05-07T13:57:58.813Z,17.40
2019-05-07T14:03:37.628Z,17.10
2019-05-07T14:06:37.351Z,17.10
2019-05-07T14:12:38.553Z,17.50
2019-05-07T14:16:02.674Z,16.70
2019-05-07T14:18:51.129Z,16.30
2019-05-07T14:21:21.949Z,16.70
2019-05-07T14:24:12.455Z,17.30
2019-05-07T14:27:01.841Z,17.50
2019-05-07T14:29:51.771Z,16.70
2019-05-07T14:32:39.199Z,16.90
2019-05-07T14:35:46.571Z,17.60
2019-05-07T14:38:33.666Z,17.90
2019-05-07T14:41:25.278Z,17.90
2019-05-07T14:47:18.534Z,17.50
2019-05-07T14:50:07.565Z,17.20
2019-05-07T14:52:56.098Z,17.50
2019-05-07T14:55:44.585Z,18.00
2019-05-07T15:01:42.946Z,17.90
2019-05-07T15:04:32.358Z,17.20
2019-05-07T15:07:22.653Z,17.30
2019-05-07T15:10:11.010Z,17.60
2019-05-07T15:13:02.121Z,17.00
2019-05-07T15:21:18.635Z,16.60
2019-05-07T15:24:02.114Z,16.70
2019-05-07T15:26:42.700Z,16.60
2019-05-07T15:29:24.508Z,16.20
2019-05-07T15:32:08.962Z,16.20
2019-05-07T15:34:57.758Z,15.80
2019-05-07T15:37:46.246Z,16.00
2019-05-07T15:40:34.726Z,16.10
2019-05-07T15:43:23.214Z,16.10
2019-05-07T15:46:12.154Z,15.90
2019-05-07T15:49:01.927Z,15.80
2019-05-07T15:54:57.566Z,16.00
2019-05-07T15:57:46.084Z,16.20
2019-05-07T16:06:22.971Z,16.70
2019-05-07T16:09:12.851Z,16.40
2019-05-07T16:14:52.285Z,16.70
2019-05-07T16:20:56.628Z,16.00
2019-05-07T16:23:37.595Z,16.00
2019-05-07T16:26:18.348Z,16.50
2019-05-07T16:28:59.050Z,16.50
2019-05-07T16:31:40.672Z,16.20
2019-05-07T16:34:24.522Z,15.70
2019-05-07T16:36:52.986Z,15.80
2019-05-07T16:39:23.019Z,15.60
2019-05-07T16:42:11.864Z,15.80
2019-05-07T16:45:02.750Z,15.90
2019-05-07T16:50:39.240Z,15.60
2019-05-07T16:56:16.508Z,15.60
2019-05-07T16:59:07.715Z,15.50
2019-05-07T17:05:05.412Z,15.20
2019-05-07T17:08:13.121Z,15.00
2019-05-07T17:14:15.900Z,14.80
2019-05-07T17:17:04.383Z,14.60
2019-05-07T17:19:53.938Z,14.70
2019-05-07T17:25:54.282Z,14.80
2019-05-07T17:28:42.757Z,14.60
2019-05-07T17:31:12.497Z,14.70
2019-05-07T17:34:02.364Z,14.70
2019-05-07T17:36:52.446Z,14.60
2019-05-07T17:39:40.122Z,14.70
2019-05-07T17:42:28.609Z,14.60
2019-05-07T17:44:58.046Z,14.70
2019-05-07T17:47:46.500Z,14.50
2019-05-07T17:53:12.023Z,14.50
2019-05-07T17:56:02.083Z,14.30
2019-05-07T18:11:20.228Z,13.90
2019-05-07T18:13:58.545Z,13.60
2019-05-07T18:17:09.058Z,13.40
2019-05-07T18:19:57.905Z,13.30
2019-05-07T18:22:38.693Z,13.20
2019-05-07T18:25:21.731Z,13.20
2019-05-07T18:27:52.664Z,13.00
2019-05-07T18:30:42.119Z,12.90
2019-05-07T18:36:19.384Z,12.70
2019-05-07T18:41:56.738Z,12.70
2019-05-07T18:47:34.054Z,12.50
2019-05-07T18:50:41.958Z,12.50
2019-05-07T18:53:31.792Z,12.40
2019-05-07T18:56:22.138Z,12.30
2019-05-07T18:58:52.324Z,12.30
2019-05-07T19:04:54.358Z,12.10
2019-05-07T19:07:42.845Z,12.00
2019-05-07T19:10:32.915Z,11.90
2019-05-07T19:19:44.466Z,11.70
2019-05-07T19:22:25.432Z,11.80
2019-05-07T19:25:06.637Z,11.70
2019-05-07T19:28:06.947Z,11.60
2019-05-07T19:30:48.274Z,11.60
2019-05-07T19:33:29.834Z,11.50
2019-05-07T19:51:42.798Z,11.50
2019-05-07T19:54:23.698Z,11.30
2019-05-07T19:57:04.738Z,11.30
2019-05-07T19:59:46.173Z,11.20
2019-05-07T20:05:32.719Z,11.20
2019-05-07T20:08:13.440Z,11.00
2019-05-07T20:10:59.776Z,11.00
2019-05-07T20:13:43.593Z,10.90
2019-05-07T20:16:23.975Z,10.80
2019-05-07T20:22:24.968Z,10.70
2019-05-07T20:25:18.174Z,10.70
2019-05-07T20:28:07.871Z,10.60
2019-05-07T20:30:48.550Z,10.50
2019-05-07T20:33:30.116Z,10.50
2019-05-07T20:42:26.229Z,10.30
2019-05-07T20:48:24.674Z,10.30
2019-05-07T20:51:05.975Z,10.30
2019-05-07T20:59:45.268Z,10.40
2019-05-07T21:05:34.459Z,10.40
2019-05-07T21:08:15.241Z,10.50
2019-05-07T21:11:15.823Z,10.50
2019-05-07T21:13:57.054Z,10.50
2019-05-07T21:19:43.487Z,10.60
2019-05-07T21:22:25.107Z,10.50
2019-05-07T21:25:06.564Z,10.50
2019-05-07T21:28:07.197Z,10.40
2019-05-07T21:34:07.325Z,10.20
2019-05-07T21:36:48.578Z,10.40
2019-05-07T21:39:29.268Z,10.30
2019-05-07T21:42:13.939Z,10.10
2019-05-07T21:44:52.941Z,10.20
2019-05-07T21:47:32.737Z,10.10
2019-05-07T21:54:24.126Z,10.10
2019-05-07T21:57:33.091Z,9.90
2019-05-07T22:00:25.679Z,9.70
2019-05-07T22:02:55.932Z,9.60
2019-05-07T22:05:25.841Z,9.60
2019-05-07T22:07:55.242Z,9.60
2019-05-07T22:10:25.055Z,9.50
2019-05-07T22:12:54.762Z,9.50
2019-05-07T22:15:24.449Z,9.60
2019-05-07T22:17:54.120Z,9.70
2019-05-07T22:20:23.486Z,9.80
2019-05-07T22:22:52.920Z,9.90
2019-05-07T22:25:22.394Z,10.00
2019-05-07T22:27:52.988Z,10.10
2019-05-07T22:30:28.745Z,10.10
2019-05-07T22:33:03.456Z,10.00
2019-05-07T22:35:36.088Z,10.00
2019-05-07T22:38:05.513Z,10.00
2019-05-07T22:40:34.920Z,10.00
2019-05-07T22:43:04.957Z,9.90
2019-05-07T22:45:34.724Z,9.90
2019-05-07T22:48:04.429Z,9.90
2019-05-07T22:50:33.906Z,9.90
2019-05-07T22:53:03.821Z,9.90
2019-05-07T22:55:33.236Z,9.80
2019-05-07T22:58:07.485Z,9.90
2019-05-07T23:01:02.333Z,9.90
2019-05-07T23:03:42.854Z,10.00
2019-05-07T23:06:12.288Z,9.90
2019-05-07T23:08:42.511Z,9.90
2019-05-07T23:11:12.473Z,9.90
2019-05-07T23:13:42.893Z,10.00
2019-05-07T23:16:12.658Z,9.90
2019-05-07T23:18:43.048Z,10.00
2019-05-07T23:21:12.901Z,10.00
2019-05-07T23:23:42.597Z,10.00
2019-05-07T23:26:14.703Z,9.90
2019-05-07T23:28:43.319Z,9.90
2019-05-07T23:31:12.711Z,9.90
2019-05-07T23:33:42.090Z,9.70
2019-05-07T23:36:12.960Z,9.70
2019-05-07T23:38:42.748Z,9.70
2019-05-07T23:41:22.604Z,9.80
2019-05-07T23:44:15.815Z,9.70
2019-05-07T23:46:45.247Z,9.70
2019-05-07T23:49:14.603Z,9.70
2019-05-07T23:51:44.303Z,9.70
2019-05-07T23:54:13.668Z,9.60
2019-05-07T23:56:43.063Z,9.60
2019-05-07T23:59:14.930Z,9.60
